createdAt,value
2019-05-22T00:01:09.230Z,26.13
2019-05-22T00:03:48.887Z,29.90
2019-05-22T00:06:19.931Z,32.03
2019-05-22T00:08:50.036Z,28.00
2019-05-22T00:11:21.252Z,29.17
2019-05-22T00:13:50.758Z,28.57
2019-05-22T00:16:21.749Z,29.20
2019-05-22T00:18:52.309Z,30.63
2019-05-22T00:21:22.558Z,30.30
2019-05-22T00:23:52.197Z,29.50
2019-05-22T00:26:21.884Z,28.63
2019-05-22T00:28:50.944Z,30.30
2019-05-22T00:31:20.226Z,29.93
2019-05-22T00:33:49.170Z,30.43
2019-05-22T00:36:18.264Z,29.27
2019-05-22T00:38:48.065Z,29.03
2019-05-22T00:41:20.665Z,27.77
2019-05-22T00:43:51.565Z,27.33
2019-05-22T00:46:21.272Z,26.87
2019-05-22T00:48:51.548Z,26.53
2019-05-22T00:51:27.126Z,25.90
2019-05-22T00:54:08.019Z,26.57
2019-05-22T00:56:57.074Z,25.83
2019-05-22T00:59:31.319Z,27.53
2019-05-22T01:02:03.037Z,28.17
2019-05-22T01:04:37.919Z,25.03
2019-05-22T01:07:12.008Z,25.50
2019-05-22T01:09:44.223Z,27.53
2019-05-22T01:12:19.241Z,24.37
2019-05-22T01:14:49.725Z,26.50
2019-05-22T01:17:20.321Z,27.57
2019-05-22T01:19:51.761Z,24.20
2019-05-22T01:22:20.774Z,24.97
2019-05-22T01:24:50.956Z,24.17
2019-05-22T01:27:20.767Z,22.87
2019-05-22T01:29:50.582Z,25.70
2019-05-22T01:32:25.928Z,26.30
2019-05-22T01:34:55.012Z,25.33
2019-05-22T01:37:26.495Z,21.97
2019-05-22T01:40:10.038Z,23.63
2019-05-22T01:42:43.778Z,25.50
2019-05-22T01:45:15.823Z,22.63
2019-05-22T01:47:50.876Z,21.60
2019-05-22T01:50:24.152Z,21.63
2019-05-22T01:52:55.234Z,21.43
2019-05-22T01:55:24.633Z,20.70
2019-05-22T01:57:53.630Z,19.83
2019-05-22T02:00:22.330Z,19.33
2019-05-22T02:02:52.605Z,18.87
2019-05-22T02:05:22.908Z,17.93
2019-05-22T02:07:51.706Z,19.00
2019-05-22T02:10:24.478Z,20.60
2019-05-22T02:12:54.820Z,19.97
2019-05-22T02:15:23.491Z,21.77
2019-05-22T02:17:52.599Z,24.93
2019-05-22T02:20:22.414Z,26.73
2019-05-22T02:22:51.325Z,25.73
2019-05-22T02:25:21.595Z,25.87
2019-05-22T02:27:50.684Z,28.37
2019-05-22T02:30:21.218Z,27.13
2019-05-22T02:32:50.213Z,29.00
2019-05-22T02:35:19.007Z,29.83
2019-05-22T02:37:48.213Z,29.10
2019-05-22T02:40:20.038Z,27.13
2019-05-22T02:42:50.434Z,28.95
2019-05-22T02:45:20.123Z,27.57
2019-05-22T02:47:50.198Z,28.43
2019-05-22T02:50:20.022Z,25.80
2019-05-22T02:52:49.191Z,25.47
2019-05-22T02:55:17.886Z,26.83
2019-05-22T02:57:46.604Z,28.60
2019-05-22T03:00:16.788Z,24.87
2019-05-22T03:02:49.616Z,26.03
2019-05-22T03:05:20.606Z,25.07
2019-05-22T03:07:49.411Z,28.10
2019-05-22T03:10:20.178Z,27.90
2019-05-22T03:12:51.280Z,26.40
2019-05-22T03:15:21.895Z,24.03
2019-05-22T03:17:52.017Z,24.60
2019-05-22T03:20:23.045Z,24.93
2019-05-22T03:23:02.807Z,26.73
2019-05-22T03:25:33.207Z,29.30
2019-05-22T03:28:01.951Z,31.77
2019-05-22T03:30:32.439Z,28.80
2019-05-22T03:33:02.257Z,31.10
2019-05-22T03:35:33.163Z,28.90
2019-05-22T03:38:03.652Z,33.77
2019-05-22T03:40:34.933Z,30.93
2019-05-22T03:43:08.316Z,32.47
2019-05-22T03:45:37.281Z,33.43
2019-05-22T03:48:07.164Z,32.10
2019-05-22T03:50:37.384Z,34.80
2019-05-22T03:53:13.227Z,33.07
2019-05-22T03:55:41.927Z,32.93
2019-05-22T03:58:10.730Z,34.67
2019-05-22T04:00:43.242Z,34.57
2019-05-22T04:03:09.990Z,32.10
2019-05-22T04:05:38.704Z,32.30
2019-05-22T04:08:07.824Z,33.67
2019-05-22T04:10:41.279Z,32.23
2019-05-22T04:13:10.097Z,37.00
2019-05-22T04:15:38.794Z,34.87
2019-05-22T04:18:14.354Z,36.23
2019-05-22T04:20:43.449Z,34.20
2019-05-22T04:23:12.261Z,32.97
2019-05-22T04:25:41.075Z,35.40
2019-05-22T04:28:09.765Z,30.07
2019-05-22T04:30:38.470Z,23.97
2019-05-22T04:33:07.183Z,24.67
2019-05-22T04:35:35.887Z,25.50
2019-05-22T04:38:05.914Z,21.03
2019-05-22T04:40:54.184Z,21.07
2019-05-22T04:43:24.788Z,19.20
2019-05-22T04:45:54.734Z,20.53
2019-05-22T04:48:23.566Z,16.93
2019-05-22T04:50:53.089Z,19.62
2019-05-22T04:53:21.876Z,20.23
2019-05-22T04:55:51.088Z,18.20
2019-05-22T04:58:24.215Z,20.43
2019-05-22T05:00:53.364Z,18.83
2019-05-22T05:03:23.102Z,18.33
2019-05-22T05:05:51.915Z,17.17
2019-05-22T05:08:20.999Z,15.83
2019-05-22T05:10:52.507Z,17.67
2019-05-22T05:13:21.332Z,18.10
2019-05-22T05:15:50.044Z,14.97
2019-05-22T05:18:18.734Z,15.43
2019-05-22T05:20:47.457Z,15.80
2019-05-22T05:23:16.381Z,15.30
2019-05-22T05:25:45.503Z,15.13
2019-05-22T05:28:14.461Z,15.30
2019-05-22T05:30:43.151Z,14.87
2019-05-22T05:33:12.558Z,13.67
2019-05-22T05:35:42.289Z,13.27
2019-05-22T05:38:12.516Z,13.87
2019-05-22T05:40:45.120Z,14.63
2019-05-22T05:43:15.096Z,13.63
2019-05-22T05:45:45.131Z,15.88
2019-05-22T05:48:23.250Z,15.60
2019-05-22T05:51:18.331Z,16.50
2019-05-22T05:53:58.404Z,15.43
2019-05-22T05:56:28.968Z,14.70
2019-05-22T05:58:58.574Z,15.20
2019-05-22T06:01:34.181Z,14.13
2019-05-22T06:04:04.947Z,15.00
2019-05-22T06:07:00.532Z,15.50
2019-05-22T06:09:28.187Z,17.33
2019-05-22T06:11:58.006Z,17.30
2019-05-22T06:14:29.073Z,16.07
2019-05-22T06:17:31.131Z,14.43
2019-05-22T06:20:01.506Z,16.73
2019-05-22T06:22:30.841Z,15.00
2019-05-22T06:25:01.719Z,14.83
2019-05-22T06:27:44.184Z,12.87
2019-05-22T06:30:17.436Z,15.13
2019-05-22T06:33:05.469Z,13.47
2019-05-22T06:35:35.942Z,12.43
2019-05-22T06:38:09.378Z,13.83
2019-05-22T06:40:39.158Z,14.87
2019-05-22T06:43:27.527Z,17.27
2019-05-22T06:45:56.652Z,17.80
2019-05-22T06:48:25.375Z,20.40
2019-05-22T06:50:54.300Z,20.37
2019-05-22T06:53:23.047Z,19.17
2019-05-22T06:55:51.742Z,16.33
2019-05-22T06:58:20.454Z,22.30
2019-05-22T07:00:49.201Z,20.93
2019-05-22T07:03:18.679Z,21.53
2019-05-22T07:05:47.403Z,17.77
2019-05-22T07:08:16.626Z,17.40
2019-05-22T07:10:45.372Z,16.97
2019-05-22T07:13:14.755Z,22.80
2019-05-22T07:15:52.060Z,16.27
2019-05-22T07:18:23.901Z,19.60
2019-05-22T07:20:54.535Z,17.73
2019-05-22T07:23:28.290Z,18.30
2019-05-22T07:25:58.527Z,16.87
2019-05-22T07:28:28.966Z,19.37
2019-05-22T07:30:57.771Z,17.13
2019-05-22T07:33:26.790Z,17.40
2019-05-22T07:36:15.866Z,23.80
2019-05-22T07:38:26.255Z,21.23
2019-05-22T07:40:55.511Z,16.43
2019-05-22T07:43:25.535Z,16.13
2019-05-22T07:45:54.934Z,20.40
2019-05-22T07:48:25.657Z,14.97
2019-05-22T07:50:55.265Z,17.30
2019-05-22T07:53:25.005Z,18.47
2019-05-22T07:55:55.134Z,16.50
2019-05-22T07:58:24.106Z,18.87
2019-05-22T08:00:55.507Z,17.33
2019-05-22T08:03:24.932Z,15.77
2019-05-22T08:05:54.862Z,15.57
2019-05-22T08:08:24.830Z,16.90
2019-05-22T08:10:54.248Z,21.33
2019-05-22T08:13:23.674Z,17.02
2019-05-22T08:15:52.592Z,17.57
2019-05-22T08:18:21.711Z,17.67
2019-05-22T08:20:50.633Z,15.13
2019-05-22T08:23:19.582Z,15.70
2019-05-22T08:25:48.391Z,16.90
2019-05-22T08:28:18.306Z,23.70
2019-05-22T08:30:48.666Z,17.50
2019-05-22T08:33:18.575Z,16.57
2019-05-22T08:35:47.594Z,22.37
2019-05-22T08:38:19.590Z,17.93
2019-05-22T08:40:49.383Z,14.93
2019-05-22T08:43:18.706Z,18.43
2019-05-22T08:45:47.558Z,18.13
2019-05-22T08:48:17.456Z,18.13
2019-05-22T08:50:46.378Z,17.23
2019-05-22T08:53:16.415Z,18.47
2019-05-22T08:55:45.665Z,17.53
2019-05-22T08:58:15.498Z,18.42
2019-05-22T09:00:44.732Z,18.93
2019-05-22T09:03:13.509Z,16.73
2019-05-22T09:05:42.271Z,20.90
2019-05-22T09:08:11.037Z,18.43
2019-05-22T09:10:39.950Z,18.20
2019-05-22T09:13:08.744Z,19.70
2019-05-22T09:15:38.358Z,18.97
2019-05-22T09:18:08.293Z,18.77
2019-05-22T09:20:48.786Z,19.30
2019-05-22T09:23:08.153Z,17.73
2019-05-22T09:25:37.311Z,18.93
2019-05-22T09:28:06.627Z,18.73
2019-05-22T09:30:35.965Z,17.87
2019-05-22T09:33:06.388Z,16.47
2019-05-22T09:35:35.738Z,17.47
2019-05-22T09:38:04.454Z,17.77
2019-05-22T09:40:33.172Z,18.30
2019-05-22T09:43:02.088Z,16.73
2019-05-22T09:45:31.413Z,17.17
2019-05-22T09:48:00.915Z,17.47
2019-05-22T09:50:30.030Z,19.40
2019-05-22T09:52:59.351Z,19.63
2019-05-22T09:55:28.579Z,19.20
2019-05-22T09:57:57.322Z,19.20
2019-05-22T10:00:27.162Z,20.57
2019-05-22T10:02:56.084Z,20.57
2019-05-22T10:05:25.126Z,20.07
2019-05-22T10:08:01.440Z,21.20
2019-05-22T10:10:26.608Z,22.10
2019-05-22T10:12:55.319Z,19.93
2019-05-22T10:15:25.448Z,20.40
2019-05-22T10:17:54.551Z,20.03
2019-05-22T10:20:23.486Z,18.80
2019-05-22T10:22:52.365Z,20.50
2019-05-22T10:25:21.537Z,17.20
2019-05-22T10:27:50.662Z,20.20
2019-05-22T10:30:21.299Z,20.37
2019-05-22T10:32:50.248Z,20.97
2019-05-22T10:35:22.209Z,21.47
2019-05-22T10:37:51.066Z,21.30
2019-05-22T10:40:20.479Z,20.27
2019-05-22T10:42:49.588Z,19.63
2019-05-22T10:45:18.612Z,20.50
2019-05-22T10:47:48.715Z,20.83
2019-05-22T10:50:17.414Z,21.20
2019-05-22T10:52:47.060Z,18.43
2019-05-22T10:55:16.791Z,19.00
2019-05-22T10:57:45.763Z,18.53
2019-05-22T11:00:15.935Z,18.00
2019-05-22T11:02:44.728Z,18.27
2019-05-22T11:05:13.458Z,21.53
2019-05-22T11:07:42.766Z,17.20
2019-05-22T11:10:11.993Z,16.33
2019-05-22T11:12:40.873Z,16.83
2019-05-22T11:15:10.109Z,18.17
2019-05-22T11:17:39.638Z,20.47
2019-05-22T11:20:09.674Z,18.17
2019-05-22T11:22:38.591Z,16.57
2019-05-22T11:25:08.782Z,16.03
2019-05-22T11:27:37.520Z,15.60
2019-05-22T11:30:07.190Z,15.03
2019-05-22T11:32:35.903Z,15.40
2019-05-22T11:35:05.382Z,15.90
2019-05-22T11:37:34.129Z,15.70
2019-05-22T11:40:02.879Z,14.93
2019-05-22T11:42:31.811Z,14.53
2019-05-22T11:45:00.605Z,16.67
2019-05-22T11:47:29.533Z,16.50
2019-05-22T11:49:58.674Z,15.77
2019-05-22T11:52:28.645Z,17.87
2019-05-22T11:54:57.401Z,16.87
2019-05-22T11:57:26.522Z,16.57
2019-05-22T11:59:55.378Z,16.63
2019-05-22T12:02:24.292Z,16.97
2019-05-22T12:04:53.038Z,15.70
2019-05-22T12:07:22.143Z,15.27
2019-05-22T12:09:50.835Z,15.70
2019-05-22T12:12:19.875Z,15.67
2019-05-22T12:14:48.591Z,14.87
2019-05-22T12:17:34.740Z,13.83
2019-05-22T12:19:47.774Z,14.50
2019-05-22T12:22:19.809Z,13.77
2019-05-22T12:24:46.909Z,13.80
2019-05-22T12:27:15.867Z,13.60
2019-05-22T12:29:44.770Z,14.93
2019-05-22T12:32:13.620Z,14.37
2019-05-22T12:34:42.544Z,15.23
2019-05-22T12:37:11.578Z,12.97
2019-05-22T12:39:40.793Z,13.33
2019-05-22T12:42:11.170Z,12.73
2019-05-22T12:44:39.941Z,13.07
2019-05-22T12:47:09.163Z,10.80
2019-05-22T12:49:38.009Z,13.43
2019-05-22T12:52:08.953Z,14.53
2019-05-22T12:54:47.353Z,11.43
2019-05-22T12:57:09.097Z,12.67
2019-05-22T12:59:38.458Z,11.97
2019-05-22T13:02:09.171Z,12.63
2019-05-22T13:04:38.743Z,9.90
2019-05-22T13:07:07.955Z,12.17
2019-05-22T13:09:37.065Z,11.03
2019-05-22T13:12:06.596Z,10.70
2019-05-22T13:14:36.264Z,11.23
2019-05-22T13:17:07.631Z,10.67
2019-05-22T13:19:37.651Z,10.87
2019-05-22T13:22:10.403Z,11.80
2019-05-22T13:24:39.220Z,12.80
2019-05-22T13:27:11.286Z,10.77
2019-05-22T13:29:40.559Z,11.07
2019-05-22T13:32:10.187Z,12.20
2019-05-22T13:34:39.957Z,12.13
2019-05-22T13:37:10.014Z,12.20
2019-05-22T13:39:38.824Z,11.90
2019-05-22T13:42:07.599Z,15.53
2019-05-22T13:44:36.632Z,11.27
2019-05-22T13:47:06.231Z,11.27
2019-05-22T13:49:37.343Z,13.50
2019-05-22T13:52:06.670Z,11.20
2019-05-22T13:54:36.098Z,12.93
2019-05-22T13:57:05.928Z,10.97
2019-05-22T13:59:35.061Z,13.33
2019-05-22T14:02:04.003Z,13.63
2019-05-22T14:04:32.758Z,14.10
2019-05-22T14:07:01.968Z,10.60
2019-05-22T14:09:31.433Z,10.63
2019-05-22T14:12:00.383Z,12.23
2019-05-22T14:14:29.110Z,11.80
2019-05-22T14:16:58.214Z,13.30
2019-05-22T14:19:26.959Z,11.07
2019-05-22T14:21:55.676Z,11.07
2019-05-22T14:24:24.434Z,12.67
2019-05-22T14:26:53.420Z,9.30
2019-05-22T14:29:22.151Z,10.17
2019-05-22T14:31:50.989Z,11.43
2019-05-22T14:34:19.977Z,9.30
2019-05-22T14:36:48.706Z,10.80
2019-05-22T14:39:17.443Z,10.20
2019-05-22T14:41:46.272Z,8.90
2019-05-22T14:44:15.226Z,12.10
2019-05-22T14:46:44.018Z,9.63
2019-05-22T14:49:12.883Z,9.83
2019-05-22T14:51:41.950Z,9.73
2019-05-22T14:54:11.607Z,9.33
2019-05-22T14:56:40.681Z,8.70
2019-05-22T14:59:09.409Z,8.33
2019-05-22T15:01:38.340Z,7.73
2019-05-22T15:04:07.647Z,7.93
2019-05-22T15:06:36.458Z,7.27
2019-05-22T15:09:07.706Z,8.10
2019-05-22T15:11:36.730Z,7.17
2019-05-22T15:14:05.454Z,8.93
2019-05-22T15:16:34.200Z,9.90
2019-05-22T15:19:03.025Z,8.17
2019-05-22T15:21:31.742Z,6.60
2019-05-22T15:24:01.564Z,6.33
2019-05-22T15:26:30.303Z,7.03
2019-05-22T15:28:59.216Z,7.67
2019-05-22T15:31:28.138Z,7.07
2019-05-22T15:33:56.875Z,6.70
2019-05-22T15:36:25.978Z,8.10
2019-05-22T15:38:54.712Z,7.57
2019-05-22T15:41:23.633Z,8.17
2019-05-22T15:43:53.488Z,6.90
2019-05-22T15:46:23.192Z,7.50
2019-05-22T15:48:51.906Z,6.30
2019-05-22T15:51:22.681Z,8.07
2019-05-22T15:53:52.930Z,8.73
2019-05-22T15:56:22.015Z,7.23
2019-05-22T15:58:52.078Z,6.00
2019-05-22T16:01:22.505Z,6.90
2019-05-22T16:03:52.227Z,6.77
2019-05-22T16:06:21.753Z,6.63
2019-05-22T16:08:50.755Z,8.60
2019-05-22T16:11:21.194Z,9.30
2019-05-22T16:13:50.106Z,7.17
2019-05-22T16:16:21.038Z,7.30
2019-05-22T16:18:49.833Z,7.23
2019-05-22T16:21:19.166Z,6.87
2019-05-22T16:23:47.978Z,6.77
2019-05-22T16:26:17.518Z,8.33
2019-05-22T16:28:48.583Z,9.33
2019-05-22T16:31:19.176Z,7.13
2019-05-22T16:33:49.235Z,7.90
2019-05-22T16:36:20.031Z,9.53
2019-05-22T16:38:49.733Z,7.67
2019-05-22T16:41:18.814Z,7.73
2019-05-22T16:43:50.441Z,8.10
2019-05-22T16:46:20.403Z,6.70
2019-05-22T16:48:49.225Z,7.23
2019-05-22T16:51:18.319Z,7.63
2019-05-22T16:53:50.670Z,8.07
2019-05-22T16:56:20.516Z,7.87
2019-05-22T16:58:50.102Z,7.07
2019-05-22T17:01:20.433Z,9.33
2019-05-22T17:03:50.948Z,7.53
2019-05-22T17:06:20.795Z,8.23
2019-05-22T17:08:51.038Z,7.43
2019-05-22T17:11:19.855Z,8.37
2019-05-22T17:13:48.637Z,8.83
2019-05-22T17:16:18.350Z,9.43
2019-05-22T17:18:48.673Z,8.80
2019-05-22T17:21:17.746Z,7.70
2019-05-22T17:23:47.033Z,6.97
2019-05-22T17:26:16.538Z,8.47
2019-05-22T17:28:45.481Z,7.07
2019-05-22T17:31:15.031Z,7.27
2019-05-22T17:33:44.119Z,8.40
2019-05-22T17:36:13.453Z,9.67
2019-05-22T17:38:42.864Z,8.50
2019-05-22T17:41:12.519Z,9.63
2019-05-22T17:43:41.836Z,8.07
2019-05-22T17:46:12.091Z,9.13
2019-05-22T17:48:41.337Z,7.73
2019-05-22T17:51:10.569Z,8.00
2019-05-22T17:53:39.276Z,9.00
2019-05-22T17:56:08.219Z,7.33
2019-05-22T17:58:37.246Z,6.97
2019-05-22T18:01:07.190Z,6.33
2019-05-22T18:03:35.918Z,7.07
2019-05-22T18:06:05.721Z,5.93
2019-05-22T18:08:34.498Z,7.37
2019-05-22T18:11:05.747Z,6.90
2019-05-22T18:13:36.660Z,7.15
2019-05-22T18:16:06.187Z,7.43
2019-05-22T18:18:35.212Z,6.20
2019-05-22T18:21:04.687Z,8.83
2019-05-22T18:23:33.542Z,7.53
2019-05-22T18:26:02.305Z,7.80
2019-05-22T18:28:31.039Z,6.90
2019-05-22T18:30:59.809Z,5.40
2019-05-22T18:33:28.737Z,5.90
2019-05-22T18:35:57.474Z,5.33
2019-05-22T18:38:26.352Z,7.83
2019-05-22T18:40:55.201Z,6.10
2019-05-22T18:43:24.166Z,5.30
2019-05-22T18:45:53.364Z,5.77
2019-05-22T18:48:22.143Z,5.63
2019-05-22T18:50:52.399Z,7.30
2019-05-22T18:53:21.418Z,5.73
2019-05-22T18:55:50.169Z,6.03
2019-05-22T18:58:19.004Z,6.27
2019-05-22T19:00:48.084Z,5.50
2019-05-22T19:03:16.869Z,6.80
2019-05-22T19:05:45.937Z,6.33
2019-05-22T19:08:14.750Z,6.50
2019-05-22T19:10:43.521Z,7.70
2019-05-22T19:13:14.546Z,7.37
2019-05-22T19:15:42.716Z,6.20
2019-05-22T19:18:11.597Z,6.37
2019-05-22T19:20:40.346Z,8.50
2019-05-22T19:23:09.190Z,7.60
2019-05-22T19:25:37.996Z,7.57
2019-05-22T19:28:06.796Z,7.07
2019-05-22T19:30:36.199Z,5.60
2019-05-22T19:33:05.223Z,7.30
2019-05-22T19:35:34.127Z,8.10
2019-05-22T19:38:03.663Z,7.47
2019-05-22T19:40:32.648Z,7.77
2019-05-22T19:43:01.994Z,5.73
2019-05-22T19:45:31.356Z,6.40
2019-05-22T19:48:00.577Z,5.70
2019-05-22T19:50:31.084Z,6.63
2019-05-22T19:53:17.684Z,6.67
2019-05-22T19:55:32.436Z,7.33
2019-05-22T19:58:01.932Z,6.60
2019-05-22T20:00:31.573Z,6.33
2019-05-22T20:03:00.875Z,6.73
2019-05-22T20:05:32.627Z,6.60
2019-05-22T20:08:01.891Z,6.47
2019-05-22T20:10:31.001Z,8.13
2019-05-22T20:13:00.242Z,9.47
2019-05-22T20:15:29.615Z,7.97
2019-05-22T20:17:58.920Z,7.07
2019-05-22T20:20:28.325Z,8.73
2019-05-22T20:22:58.109Z,8.07
2019-05-22T20:25:27.416Z,7.93
2019-05-22T20:27:56.526Z,8.13
2019-05-22T20:30:26.840Z,9.33
2019-05-22T20:32:55.616Z,9.03
2019-05-22T20:35:24.446Z,8.27
2019-05-22T20:37:53.214Z,9.00
2019-05-22T20:40:23.206Z,9.70
2019-05-22T20:42:52.261Z,8.83
2019-05-22T20:45:23.819Z,10.17
2019-05-22T20:48:14.324Z,11.40
2019-05-22T20:50:44.014Z,8.30
2019-05-22T20:53:13.191Z,9.40
2019-05-22T20:55:43.563Z,9.43
2019-05-22T20:58:13.412Z,9.50
2019-05-22T21:00:42.236Z,8.30
2019-05-22T21:03:11.225Z,12.63
2019-05-22T21:05:41.751Z,12.10
2019-05-22T21:08:12.085Z,12.90
2019-05-22T21:10:46.730Z,10.50
2019-05-22T21:13:18.341Z,9.30
2019-05-22T21:15:47.314Z,9.50
2019-05-22T21:18:18.663Z,10.57
2019-05-22T21:20:54.711Z,9.07
2019-05-22T21:23:20.347Z,10.20
2019-05-22T21:25:49.590Z,13.30
2019-05-22T21:28:18.726Z,9.97
2019-05-22T21:30:47.549Z,10.50
2019-05-22T21:33:16.560Z,9.83
2019-05-22T21:35:45.315Z,11.30
2019-05-22T21:38:14.475Z,15.13
2019-05-22T21:40:43.433Z,11.40
2019-05-22T21:43:12.602Z,11.17
2019-05-22T21:45:41.675Z,12.47
2019-05-22T21:48:10.989Z,11.07
2019-05-22T21:50:39.711Z,11.63
2019-05-22T21:53:11.240Z,9.63
2019-05-22T21:55:45.405Z,12.40
2019-05-22T21:58:12.262Z,8.53
2019-05-22T22:01:01.629Z,10.37
2019-05-22T22:03:34.860Z,11.37
2019-05-22T22:06:04.538Z,12.77
2019-05-22T22:08:34.158Z,12.60
2019-05-22T22:11:03.537Z,11.73
2019-05-22T22:13:33.062Z,10.00
2019-05-22T22:16:03.815Z,10.77
2019-05-22T22:18:32.735Z,9.30
2019-05-22T22:21:02.077Z,9.80
2019-05-22T22:23:30.789Z,10.03
2019-05-22T22:26:00.226Z,9.43
2019-05-22T22:28:29.544Z,8.70
2019-05-22T22:31:02.559Z,10.23
2019-05-22T22:33:32.715Z,10.03
2019-05-22T22:36:02.081Z,10.87
2019-05-22T22:38:31.720Z,11.63
2019-05-22T22:41:00.859Z,11.50
2019-05-22T22:43:32.334Z,8.93
2019-05-22T22:46:09.120Z,10.07
2019-05-22T22:48:39.546Z,11.57
2019-05-22T22:51:11.667Z,10.53
2019-05-22T22:53:40.735Z,9.37
2019-05-22T22:56:09.591Z,11.07
2019-05-22T22:58:39.505Z,10.83
2019-05-22T23:01:10.426Z,11.50
2019-05-22T23:03:39.422Z,15.03
2019-05-22T23:06:09.339Z,9.90
2019-05-22T23:08:39.681Z,10.37
2019-05-22T23:11:08.985Z,10.10
2019-05-22T23:13:38.222Z,9.73
2019-05-22T23:16:07.747Z,10.93
2019-05-22T23:19:06.680Z,10.00
2019-05-22T23:21:35.883Z,11.20
2019-05-22T23:24:05.017Z,12.07
2019-05-22T23:26:35.867Z,11.83
2019-05-22T23:29:06.885Z,11.80
2019-05-22T23:31:36.111Z,10.33
2019-05-22T23:34:06.304Z,10.60
2019-05-22T23:36:35.350Z,12.77
2019-05-22T23:39:07.629Z,9.50
2019-05-22T23:41:37.855Z,10.43
2019-05-22T23:44:08.909Z,10.53
2019-05-22T23:46:38.063Z,10.00
2019-05-22T23:49:07.881Z,10.90
2019-05-22T23:51:36.911Z,12.00
2019-05-22T23:54:05.623Z,10.23
2019-05-22T23:56:36.397Z,10.63
2019-05-22T23:59:05.108Z,10.23
